Terminal Aerodrome Forecast
Issued by NWS

Home | Current Version | Previous Version | Text Only | Print | Product List | Glossary On
Versions: 1 2 3 4 5 6 7 8 9 10 11 12 13 14 15 16 17
000
FTUS46 KSEW 251510 AAA
TAFCLM
TAF AMD
KCLM 251510Z 2515/2612 28006KT P6SM VCSH SCT030 BKN050
     FM251800 31008KT P6SM VCSH SCT050 SCT200
     FM260100 27004KT P6SM BKN200
     FM260600 23004KT P6SM SCT100 OVC150=

USA.gov is the U.S. government's official web portal to all federal, state and local government web resources and services.